sensor_id;sensor_type;location;lat;lon;timestamp;P1;durP1;ratioP1;P2;durP2;ratioP2
67195;SDS011;54122;53.538;49.366;2023-12-04T00:01:31;1.90;;;1.23;;
67195;SDS011;54122;53.538;49.366;2023-12-04T00:03:57;3.95;;;1.13;;
67195;SDS011;54122;53.538;49.366;2023-12-04T00:06:24;4.82;;;1.55;;
67195;SDS011;54122;53.538;49.366;2023-12-04T00:08:50;2.78;;;1.40;;
67195;SDS011;54122;53.538;49.366;2023-12-04T00:11:17;2.17;;;0.93;;
67195;SDS011;54122;53.538;49.366;2023-12-04T00:13:44;2.22;;;1.15;;
67195;SDS011;54122;53.538;49.366;2023-12-04T00:16:10;3.00;;;1.35;;
67195;SDS011;54122;53.538;49.366;2023-12-04T00:18:37;1.83;;;1.02;;
67195;SDS011;54122;53.538;49.366;2023-12-04T00:21:04;2.97;;;1.15;;
67195;SDS011;54122;53.538;49.366;2023-12-04T00:23:31;2.33;;;1.23;;
67195;SDS011;54122;53.538;49.366;2023-12-04T00:25:58;3.63;;;1.42;;
67195;SDS011;54122;53.538;49.366;2023-12-04T00:28:24;5.68;;;2.40;;
67195;SDS011;54122;53.538;49.366;2023-12-04T00:30:51;3.85;;;1.00;;
67195;SDS011;54122;53.538;49.366;2023-12-04T00:33:18;2.08;;;1.08;;
67195;SDS011;54122;53.538;49.366;2023-12-04T00:35:44;2.50;;;0.98;;
67195;SDS011;54122;53.538;49.366;2023-12-04T00:38:11;2.50;;;1.58;;
67195;SDS011;54122;53.538;49.366;2023-12-04T00:40:38;3.90;;;1.70;;
67195;SDS011;54122;53.538;49.366;2023-12-04T00:43:04;2.08;;;1.55;;
67195;SDS011;54122;53.538;49.366;2023-12-04T00:45:31;4.53;;;1.52;;
67195;SDS011;54122;53.538;49.366;2023-12-04T00:47:58;3.13;;;1.33;;
67195;SDS011;54122;53.538;49.366;2023-12-04T00:50:24;2.60;;;1.35;;
67195;SDS011;54122;53.538;49.366;2023-12-04T00:52:51;4.53;;;2.17;;
67195;SDS011;54122;53.538;49.366;2023-12-04T00:55:17;3.58;;;1.30;;
67195;SDS011;54122;53.538;49.366;2023-12-04T00:57:44;6.70;;;1.88;;
67195;SDS011;54122;53.538;49.366;2023-12-04T01:00:11;13.63;;;2.38;;
67195;SDS011;54122;53.538;49.366;2023-12-04T01:02:38;3.08;;;1.73;;
67195;SDS011;54122;53.538;49.366;2023-12-04T01:05:05;4.80;;;2.35;;
67195;SDS011;54122;53.538;49.366;2023-12-04T01:07:32;3.70;;;1.73;;
67195;SDS011;54122;53.538;49.366;2023-12-04T01:09:59;5.40;;;1.30;;
67195;SDS011;54122;53.538;49.366;2023-12-04T01:12:26;8.52;;;2.08;;
67195;SDS011;54122;53.538;49.366;2023-12-04T01:14:52;10.38;;;2.28;;
67195;SDS011;54122;53.538;49.366;2023-12-04T01:17:18;6.15;;;2.08;;
67195;SDS011;54122;53.538;49.366;2023-12-04T01:19:45;5.63;;;2.25;;
67195;SDS011;54122;53.538;49.366;2023-12-04T01:22:11;4.43;;;1.83;;
67195;SDS011;54122;53.538;49.366;2023-12-04T01:24:38;5.10;;;2.00;;
67195;SDS011;54122;53.538;49.366;2023-12-04T01:27:05;5.63;;;2.42;;
67195;SDS011;54122;53.538;49.366;2023-12-04T01:29:31;3.58;;;2.15;;
67195;SDS011;54122;53.538;49.366;2023-12-04T01:31:58;3.75;;;1.92;;
67195;SDS011;54122;53.538;49.366;2023-12-04T01:34:24;6.57;;;1.73;;
67195;SDS011;54122;53.538;49.366;2023-12-04T01:36:51;4.13;;;1.98;;
67195;SDS011;54122;53.538;49.366;2023-12-04T01:39:18;3.85;;;1.73;;
67195;SDS011;54122;53.538;49.366;2023-12-04T01:41:45;2.45;;;1.30;;
67195;SDS011;54122;53.538;49.366;2023-12-04T01:44:11;4.05;;;2.22;;
67195;SDS011;54122;53.538;49.366;2023-12-04T01:46:38;4.57;;;1.95;;
67195;SDS011;54122;53.538;49.366;2023-12-04T01:49:04;4.88;;;1.63;;
67195;SDS011;54122;53.538;49.366;2023-12-04T01:51:31;5.72;;;2.42;;
67195;SDS011;54122;53.538;49.366;2023-12-04T01:53:59;4.80;;;2.28;;
67195;SDS011;54122;53.538;49.366;2023-12-04T01:56:26;5.60;;;2.60;;
67195;SDS011;54122;53.538;49.366;2023-12-04T01:58:52;6.72;;;2.75;;
67195;SDS011;54122;53.538;49.366;2023-12-04T02:01:19;5.15;;;2.50;;
67195;SDS011;54122;53.538;49.366;2023-12-04T02:03:46;9.73;;;2.83;;
67195;SDS011;54122;53.538;49.366;2023-12-04T02:06:13;10.00;;;2.92;;
67195;SDS011;54122;53.538;49.366;2023-12-04T02:08:46;6.78;;;3.40;;
67195;SDS011;54122;53.538;49.366;2023-12-04T02:11:13;6.13;;;2.40;;
67195;SDS011;54122;53.538;49.366;2023-12-04T02:13:40;4.80;;;2.05;;
67195;SDS011;54122;53.538;49.366;2023-12-04T02:16:07;5.60;;;2.92;;
67195;SDS011;54122;53.538;49.366;2023-12-04T02:18:36;9.07;;;3.67;;
67195;SDS011;54122;53.538;49.366;2023-12-04T02:21:03;3.63;;;1.88;;
67195;SDS011;54122;53.538;49.366;2023-12-04T02:23:30;9.27;;;3.42;;
67195;SDS011;54122;53.538;49.366;2023-12-04T02:26:05;8.32;;;3.85;;
67195;SDS011;54122;53.538;49.366;2023-12-04T02:28:36;7.70;;;3.45;;
67195;SDS011;54122;53.538;49.366;2023-12-04T02:31:04;8.75;;;4.13;;
67195;SDS011;54122;53.538;49.366;2023-12-04T02:33:32;7.40;;;3.00;;
67195;SDS011;54122;53.538;49.366;2023-12-04T02:36:00;8.77;;;3.78;;
67195;SDS011;54122;53.538;49.366;2023-12-04T02:38:28;8.75;;;3.53;;
67195;SDS011;54122;53.538;49.366;2023-12-04T02:40:55;8.05;;;3.25;;
67195;SDS011;54122;53.538;49.366;2023-12-04T02:43:22;8.93;;;4.30;;
67195;SDS011;54122;53.538;49.366;2023-12-04T02:45:48;11.98;;;4.50;;
67195;SDS011;54122;53.538;49.366;2023-12-04T02:55:28;8.88;;;3.95;;
67195;SDS011;54122;53.538;49.366;2023-12-04T02:57:55;10.38;;;3.55;;
67195;SDS011;54122;53.538;49.366;2023-12-04T03:00:21;7.32;;;3.05;;
67195;SDS011;54122;53.538;49.366;2023-12-04T03:02:48;7.63;;;3.25;;
67195;SDS011;54122;53.538;49.366;2023-12-04T03:05:15;7.47;;;3.20;;
67195;SDS011;54122;53.538;49.366;2023-12-04T03:07:41;15.20;;;4.90;;
67195;SDS011;54122;53.538;49.366;2023-12-04T03:10:08;6.22;;;2.95;;
67195;SDS011;54122;53.538;49.366;2023-12-04T03:12:34;8.90;;;3.72;;
67195;SDS011;54122;53.538;49.366;2023-12-04T03:15:01;9.85;;;4.38;;
67195;SDS011;54122;53.538;49.366;2023-12-04T03:17:28;5.63;;;3.13;;
67195;SDS011;54122;53.538;49.366;2023-12-04T03:19:55;10.77;;;3.58;;
67195;SDS011;54122;53.538;49.366;2023-12-04T03:22:21;5.68;;;2.70;;
67195;SDS011;54122;53.538;49.366;2023-12-04T03:24:47;10.25;;;3.33;;
67195;SDS011;54122;53.538;49.366;2023-12-04T03:27:14;7.38;;;3.53;;
67195;SDS011;54122;53.538;49.366;2023-12-04T03:29:41;9.60;;;3.55;;
67195;SDS011;54122;53.538;49.366;2023-12-04T03:32:07;6.35;;;3.33;;
67195;SDS011;54122;53.538;49.366;2023-12-04T03:34:34;10.60;;;3.38;;
67195;SDS011;54122;53.538;49.366;2023-12-04T03:37:00;6.15;;;2.78;;
67195;SDS011;54122;53.538;49.366;2023-12-04T03:39:27;8.32;;;3.75;;
67195;SDS011;54122;53.538;49.366;2023-12-04T03:41:53;7.50;;;3.50;;
67195;SDS011;54122;53.538;49.366;2023-12-04T03:44:20;10.60;;;3.42;;
67195;SDS011;54122;53.538;49.366;2023-12-04T03:46:46;6.50;;;3.30;;
67195;SDS011;54122;53.538;49.366;2023-12-04T03:49:13;8.75;;;3.88;;
67195;SDS011;54122;53.538;49.366;2023-12-04T03:51:39;8.43;;;3.88;;
67195;SDS011;54122;53.538;49.366;2023-12-04T03:54:06;7.90;;;3.38;;
67195;SDS011;54122;53.538;49.366;2023-12-04T03:56:32;8.40;;;3.70;;
67195;SDS011;54122;53.538;49.366;2023-12-04T03:58:59;8.15;;;3.47;;
67195;SDS011;54122;53.538;49.366;2023-12-04T04:01:26;11.25;;;4.00;;
67195;SDS011;54122;53.538;49.366;2023-12-04T04:03:52;11.52;;;4.45;;
67195;SDS011;54122;53.538;49.366;2023-12-04T04:06:18;9.07;;;4.18;;
67195;SDS011;54122;53.538;49.366;2023-12-04T04:08:45;8.43;;;3.92;;
67195;SDS011;54122;53.538;49.366;2023-12-04T04:11:11;7.20;;;3.53;;
67195;SDS011;54122;53.538;49.366;2023-12-04T04:13:38;6.60;;;3.25;;
67195;SDS011;54122;53.538;49.366;2023-12-04T04:16:05;5.07;;;3.05;;
67195;SDS011;54122;53.538;49.366;2023-12-04T04:18:31;5.43;;;2.80;;
67195;SDS011;54122;53.538;49.366;2023-12-04T04:20:58;7.30;;;3.47;;
67195;SDS011;54122;53.538;49.366;2023-12-04T04:23:25;5.25;;;2.35;;
67195;SDS011;54122;53.538;49.366;2023-12-04T04:25:51;11.27;;;3.08;;
67195;SDS011;54122;53.538;49.366;2023-12-04T04:28:18;6.13;;;2.90;;
67195;SDS011;54122;53.538;49.366;2023-12-04T04:30:44;5.45;;;2.40;;
67195;SDS011;54122;53.538;49.366;2023-12-04T04:33:10;8.60;;;3.83;;
67195;SDS011;54122;53.538;49.366;2023-12-04T04:35:37;9.45;;;3.20;;
67195;SDS011;54122;53.538;49.366;2023-12-04T04:38:04;4.22;;;2.10;;
67195;SDS011;54122;53.538;49.366;2023-12-04T04:40:30;6.68;;;2.38;;
67195;SDS011;54122;53.538;49.366;2023-12-04T04:42:57;5.85;;;2.35;;
67195;SDS011;54122;53.538;49.366;2023-12-04T04:45:24;6.53;;;2.75;;
67195;SDS011;54122;53.538;49.366;2023-12-04T04:47:50;9.38;;;2.50;;
67195;SDS011;54122;53.538;49.366;2023-12-04T04:50:17;6.93;;;3.15;;
67195;SDS011;54122;53.538;49.366;2023-12-04T04:52:43;6.93;;;2.67;;
67195;SDS011;54122;53.538;49.366;2023-12-04T04:55:10;9.05;;;2.90;;
67195;SDS011;54122;53.538;49.366;2023-12-04T04:57:37;6.05;;;2.65;;
67195;SDS011;54122;53.538;49.366;2023-12-04T05:00:03;6.38;;;2.85;;
67195;SDS011;54122;53.538;49.366;2023-12-04T05:02:31;7.70;;;3.33;;
67195;SDS011;54122;53.538;49.366;2023-12-04T05:04:57;10.85;;;3.35;;
67195;SDS011;54122;53.538;49.366;2023-12-04T05:07:24;9.65;;;3.83;;
67195;SDS011;54122;53.538;49.366;2023-12-04T05:09:50;7.05;;;3.33;;
67195;SDS011;54122;53.538;49.366;2023-12-04T05:12:17;6.03;;;2.85;;
67195;SDS011;54122;53.538;49.366;2023-12-04T05:14:43;7.97;;;3.47;;
67195;SDS011;54122;53.538;49.366;2023-12-04T05:17:14;10.98;;;3.85;;
67195;SDS011;54122;53.538;49.366;2023-12-04T05:19:40;7.47;;;3.30;;
67195;SDS011;54122;53.538;49.366;2023-12-04T05:22:07;6.63;;;3.20;;
67195;SDS011;54122;53.538;49.366;2023-12-04T05:24:34;12.93;;;2.45;;
67195;SDS011;54122;53.538;49.366;2023-12-04T05:29:46;5.63;;;2.38;;
67195;SDS011;54122;53.538;49.366;2023-12-04T05:32:12;5.45;;;2.80;;
67195;SDS011;54122;53.538;49.366;2023-12-04T05:34:39;4.05;;;2.08;;
67195;SDS011;54122;53.538;49.366;2023-12-04T05:37:06;5.80;;;2.38;;
67195;SDS011;54122;53.538;49.366;2023-12-04T05:39:32;3.90;;;1.83;;
67195;SDS011;54122;53.538;49.366;2023-12-04T05:41:59;4.15;;;2.25;;
67195;SDS011;54122;53.538;49.366;2023-12-04T05:44:26;2.90;;;1.70;;
67195;SDS011;54122;53.538;49.366;2023-12-04T05:46:52;2.97;;;1.90;;
67195;SDS011;54122;53.538;49.366;2023-12-04T05:49:19;9.88;;;2.22;;
67195;SDS011;54122;53.538;49.366;2023-12-04T05:51:45;4.28;;;2.22;;
67195;SDS011;54122;53.538;49.366;2023-12-04T05:54:12;2.92;;;1.60;;
67195;SDS011;54122;53.538;49.366;2023-12-04T05:56:40;3.38;;;1.70;;
67195;SDS011;54122;53.538;49.366;2023-12-04T05:59:07;3.22;;;1.85;;
67195;SDS011;54122;53.538;49.366;2023-12-04T06:01:33;2.40;;;1.33;;
67195;SDS011;54122;53.538;49.366;2023-12-04T06:04:00;3.00;;;1.70;;
67195;SDS011;54122;53.538;49.366;2023-12-04T06:06:26;2.22;;;1.50;;
67195;SDS011;54122;53.538;49.366;2023-12-04T06:08:53;2.10;;;1.05;;
67195;SDS011;54122;53.538;49.366;2023-12-04T06:11:19;6.07;;;1.98;;
67195;SDS011;54122;53.538;49.366;2023-12-04T06:13:45;2.47;;;1.38;;
67195;SDS011;54122;53.538;49.366;2023-12-04T06:16:12;2.42;;;1.38;;
67195;SDS011;54122;53.538;49.366;2023-12-04T06:18:38;3.60;;;1.83;;
67195;SDS011;54122;53.538;49.366;2023-12-04T06:21:05;5.47;;;2.08;;
67195;SDS011;54122;53.538;49.366;2023-12-04T06:23:32;1.42;;;1.10;;
67195;SDS011;54122;53.538;49.366;2023-12-04T06:25:59;2.92;;;1.63;;
67195;SDS011;54122;53.538;49.366;2023-12-04T06:28:26;3.63;;;1.40;;
67195;SDS011;54122;53.538;49.366;2023-12-04T06:30:55;3.72;;;1.95;;
67195;SDS011;54122;53.538;49.366;2023-12-04T06:33:23;3.22;;;1.98;;
67195;SDS011;54122;53.538;49.366;2023-12-04T06:35:50;3.08;;;1.40;;
67195;SDS011;54122;53.538;49.366;2023-12-04T06:38:17;3.55;;;1.70;;
67195;SDS011;54122;53.538;49.366;2023-12-04T06:40:46;2.55;;;1.00;;
67195;SDS011;54122;53.538;49.366;2023-12-04T06:43:13;3.78;;;1.50;;
67195;SDS011;54122;53.538;49.366;2023-12-04T06:45:41;1.67;;;1.27;;
67195;SDS011;54122;53.538;49.366;2023-12-04T06:48:09;3.58;;;1.80;;
67195;SDS011;54122;53.538;49.366;2023-12-04T06:50:39;4.28;;;1.90;;
67195;SDS011;54122;53.538;49.366;2023-12-04T06:53:05;3.85;;;1.90;;
67195;SDS011;54122;53.538;49.366;2023-12-04T06:55:32;3.63;;;1.92;;
67195;SDS011;54122;53.538;49.366;2023-12-04T06:57:59;5.45;;;2.13;;
67195;SDS011;54122;53.538;49.366;2023-12-04T07:00:25;2.47;;;1.27;;
67195;SDS011;54122;53.538;49.366;2023-12-04T07:28:06;3.60;;;1.63;;
67195;SDS011;54122;53.538;49.366;2023-12-04T07:30:32;2.45;;;1.13;;
67195;SDS011;54122;53.538;49.366;2023-12-04T07:32:59;3.17;;;1.60;;
67195;SDS011;54122;53.538;49.366;2023-12-04T07:35:26;3.85;;;1.73;;
67195;SDS011;54122;53.538;49.366;2023-12-04T07:37:52;7.85;;;2.35;;
67195;SDS011;54122;53.538;49.366;2023-12-04T07:40:19;3.65;;;1.38;;
67195;SDS011;54122;53.538;49.366;2023-12-04T07:42:54;2.50;;;1.45;;
67195;SDS011;54122;53.538;49.366;2023-12-04T07:45:21;3.42;;;1.92;;
67195;SDS011;54122;53.538;49.366;2023-12-04T07:47:50;3.97;;;1.50;;
67195;SDS011;54122;53.538;49.366;2023-12-04T07:53:44;2.90;;;1.38;;
67195;SDS011;54122;53.538;49.366;2023-12-04T07:59:15;1.60;;;1.13;;
67195;SDS011;54122;53.538;49.366;2023-12-04T08:01:41;1.77;;;1.33;;
67195;SDS011;54122;53.538;49.366;2023-12-04T08:04:07;3.28;;;1.30;;
67195;SDS011;54122;53.538;49.366;2023-12-04T08:06:33;1.27;;;0.88;;
67195;SDS011;54122;53.538;49.366;2023-12-04T08:09:01;4.10;;;1.63;;
67195;SDS011;54122;53.538;49.366;2023-12-04T08:11:28;2.85;;;1.30;;
67195;SDS011;54122;53.538;49.366;2023-12-04T08:13:54;3.33;;;1.63;;
67195;SDS011;54122;53.538;49.366;2023-12-04T08:16:21;3.30;;;1.42;;
67195;SDS011;54122;53.538;49.366;2023-12-04T08:18:48;1.23;;;0.70;;
67195;SDS011;54122;53.538;49.366;2023-12-04T08:21:16;2.42;;;1.55;;
67195;SDS011;54122;53.538;49.366;2023-12-04T08:23:42;2.05;;;1.27;;
67195;SDS011;54122;53.538;49.366;2023-12-04T08:26:09;2.55;;;1.30;;
67195;SDS011;54122;53.538;49.366;2023-12-04T08:28:36;2.42;;;1.20;;
67195;SDS011;54122;53.538;49.366;2023-12-04T08:31:09;1.63;;;1.10;;
67195;SDS011;54122;53.538;49.366;2023-12-04T08:33:36;2.00;;;1.20;;
67195;SDS011;54122;53.538;49.366;2023-12-04T08:36:02;4.50;;;1.50;;
67195;SDS011;54122;53.538;49.366;2023-12-04T08:38:29;4.28;;;1.33;;
67195;SDS011;54122;53.538;49.366;2023-12-04T08:40:55;5.20;;;1.38;;
67195;SDS011;54122;53.538;49.366;2023-12-04T08:43:21;4.13;;;1.20;;
67195;SDS011;54122;53.538;49.366;2023-12-04T08:45:49;2.42;;;1.20;;
67195;SDS011;54122;53.538;49.366;2023-12-04T08:48:15;2.67;;;0.88;;
67195;SDS011;54122;53.538;49.366;2023-12-04T08:50:41;1.50;;;0.70;;
67195;SDS011;54122;53.538;49.366;2023-12-04T08:53:08;2.97;;;1.33;;
67195;SDS011;54122;53.538;49.366;2023-12-04T08:55:34;4.05;;;1.38;;
67195;SDS011;54122;53.538;49.366;2023-12-04T08:58:01;3.13;;;1.33;;
67195;SDS011;54122;53.538;49.366;2023-12-04T09:03:22;2.80;;;1.42;;
67195;SDS011;54122;53.538;49.366;2023-12-04T09:05:51;1.48;;;0.82;;
67195;SDS011;54122;53.538;49.366;2023-12-04T09:08:18;3.22;;;1.15;;
67195;SDS011;54122;53.538;49.366;2023-12-04T09:13:38;2.28;;;1.40;;
67195;SDS011;54122;53.538;49.366;2023-12-04T09:16:05;3.15;;;1.55;;
67195;SDS011;54122;53.538;49.366;2023-12-04T09:18:31;3.42;;;1.00;;
67195;SDS011;54122;53.538;49.366;2023-12-04T09:20:58;6.88;;;1.48;;
67195;SDS011;54122;53.538;49.366;2023-12-04T09:23:24;2.45;;;1.20;;
67195;SDS011;54122;53.538;49.366;2023-12-04T09:25:50;2.35;;;1.25;;
67195;SDS011;54122;53.538;49.366;2023-12-04T09:28:17;4.28;;;1.02;;
67195;SDS011;54122;53.538;49.366;2023-12-04T09:30:43;3.45;;;0.90;;
67195;SDS011;54122;53.538;49.366;2023-12-04T09:33:10;2.03;;;1.05;;
67195;SDS011;54122;53.538;49.366;2023-12-04T09:35:36;3.47;;;1.27;;
67195;SDS011;54122;53.538;49.366;2023-12-04T09:38:02;1.27;;;1.00;;
67195;SDS011;54122;53.538;49.366;2023-12-04T09:40:29;1.08;;;0.63;;
67195;SDS011;54122;53.538;49.366;2023-12-04T09:42:55;1.60;;;0.98;;
67195;SDS011;54122;53.538;49.366;2023-12-04T09:45:21;1.20;;;0.65;;
67195;SDS011;54122;53.538;49.366;2023-12-04T09:47:49;0.98;;;0.77;;
67195;SDS011;54122;53.538;49.366;2023-12-04T09:50:16;1.17;;;0.80;;
67195;SDS011;54122;53.538;49.366;2023-12-04T09:52:49;1.10;;;0.68;;
67195;SDS011;54122;53.538;49.366;2023-12-04T09:55:16;2.03;;;1.35;;
67195;SDS011;54122;53.538;49.366;2023-12-04T09:57:44;1.55;;;0.75;;
67195;SDS011;54122;53.538;49.366;2023-12-04T10:00:11;1.77;;;1.00;;
67195;SDS011;54122;53.538;49.366;2023-12-04T10:02:41;2.55;;;1.10;;
67195;SDS011;54122;53.538;49.366;2023-12-04T10:05:07;2.75;;;1.42;;
67195;SDS011;54122;53.538;49.366;2023-12-04T10:07:34;3.33;;;1.05;;
67195;SDS011;54122;53.538;49.366;2023-12-04T10:10:02;3.30;;;1.25;;
67195;SDS011;54122;53.538;49.366;2023-12-04T10:12:33;1.55;;;0.75;;
67195;SDS011;54122;53.538;49.366;2023-12-04T10:15:02;1.42;;;0.98;;
67195;SDS011;54122;53.538;49.366;2023-12-04T10:17:32;1.10;;;0.75;;
67195;SDS011;54122;53.538;49.366;2023-12-04T10:20:06;2.08;;;0.90;;
67195;SDS011;54122;53.538;49.366;2023-12-04T10:22:52;2.20;;;0.80;;
67195;SDS011;54122;53.538;49.366;2023-12-04T10:25:24;3.50;;;1.00;;
67195;SDS011;54122;53.538;49.366;2023-12-04T10:27:54;2.25;;;1.15;;
67195;SDS011;54122;53.538;49.366;2023-12-04T10:30:32;2.10;;;0.98;;
67195;SDS011;54122;53.538;49.366;2023-12-04T10:33:05;1.42;;;1.00;;
67195;SDS011;54122;53.538;49.366;2023-12-04T10:35:33;1.15;;;0.85;;
67195;SDS011;54122;53.538;49.366;2023-12-04T10:38:04;1.50;;;0.85;;
67195;SDS011;54122;53.538;49.366;2023-12-04T10:40:32;2.03;;;1.10;;
67195;SDS011;54122;53.538;49.366;2023-12-04T10:45:35;1.33;;;0.88;;
67195;SDS011;54122;53.538;49.366;2023-12-04T10:48:03;3.22;;;1.00;;
67195;SDS011;54122;53.538;49.366;2023-12-04T10:50:34;1.60;;;1.20;;
67195;SDS011;54122;53.538;49.366;2023-12-04T10:53:07;1.58;;;1.08;;
67195;SDS011;54122;53.538;49.366;2023-12-04T10:55:34;1.25;;;0.88;;
67195;SDS011;54122;53.538;49.366;2023-12-04T10:58:02;3.13;;;1.33;;
67195;SDS011;54122;53.538;49.366;2023-12-04T11:00:35;2.22;;;1.20;;
67195;SDS011;54122;53.538;49.366;2023-12-04T11:03:07;1.20;;;0.80;;
67195;SDS011;54122;53.538;49.366;2023-12-04T11:05:38;1.60;;;0.90;;
67195;SDS011;54122;53.538;49.366;2023-12-04T11:08:07;2.83;;;0.93;;
67195;SDS011;54122;53.538;49.366;2023-12-04T11:10:38;2.08;;;1.30;;
67195;SDS011;54122;53.538;49.366;2023-12-04T11:13:17;2.95;;;1.25;;
67195;SDS011;54122;53.538;49.366;2023-12-04T11:15:47;0.82;;;0.60;;
67195;SDS011;54122;53.538;49.366;2023-12-04T11:18:15;0.98;;;0.57;;
67195;SDS011;54122;53.538;49.366;2023-12-04T11:20:56;1.20;;;0.60;;
67195;SDS011;54122;53.538;49.366;2023-12-04T11:23:29;1.52;;;0.65;;
67195;SDS011;54122;53.538;49.366;2023-12-04T11:25:57;1.75;;;0.77;;
67195;SDS011;54122;53.538;49.366;2023-12-04T11:28:24;1.02;;;0.50;;
67195;SDS011;54122;53.538;49.366;2023-12-04T11:30:53;2.45;;;0.60;;
67195;SDS011;54122;53.538;49.366;2023-12-04T11:33:19;2.92;;;0.70;;
67195;SDS011;54122;53.538;49.366;2023-12-04T11:35:46;0.98;;;0.50;;
67195;SDS011;54122;53.538;49.366;2023-12-04T11:38:13;2.72;;;0.85;;
67195;SDS011;54122;53.538;49.366;2023-12-04T11:40:40;1.13;;;0.85;;
67195;SDS011;54122;53.538;49.366;2023-12-04T11:43:27;2.03;;;0.90;;
67195;SDS011;54122;53.538;49.366;2023-12-04T11:46:10;1.10;;;0.68;;
67195;SDS011;54122;53.538;49.366;2023-12-04T11:48:37;1.00;;;0.60;;
67195;SDS011;54122;53.538;49.366;2023-12-04T11:51:07;0.68;;;0.40;;
67195;SDS011;54122;53.538;49.366;2023-12-04T11:53:37;4.22;;;0.65;;
67195;SDS011;54122;53.538;49.366;2023-12-04T11:56:11;1.08;;;0.70;;
67195;SDS011;54122;53.538;49.366;2023-12-04T11:58:42;0.98;;;0.70;;
67195;SDS011;54122;53.538;49.366;2023-12-04T12:01:09;1.50;;;0.90;;
67195;SDS011;54122;53.538;49.366;2023-12-04T12:03:36;1.00;;;0.57;;
67195;SDS011;54122;53.538;49.366;2023-12-04T12:06:03;0.52;;;0.38;;
67195;SDS011;54122;53.538;49.366;2023-12-04T12:08:30;2.15;;;0.90;;
67195;SDS011;54122;53.538;49.366;2023-12-04T12:10:56;5.95;;;1.13;;
67195;SDS011;54122;53.538;49.366;2023-12-04T12:13:23;3.60;;;1.00;;
67195;SDS011;54122;53.538;49.366;2023-12-04T12:15:52;1.17;;;0.68;;
67195;SDS011;54122;53.538;49.366;2023-12-04T12:18:18;1.55;;;0.85;;
67195;SDS011;54122;53.538;49.366;2023-12-04T12:20:44;2.97;;;1.10;;
67195;SDS011;54122;53.538;49.366;2023-12-04T12:23:10;3.33;;;1.20;;
67195;SDS011;54122;53.538;49.366;2023-12-04T12:25:37;4.97;;;1.48;;
67195;SDS011;54122;53.538;49.366;2023-12-04T12:28:06;2.45;;;1.30;;
67195;SDS011;54122;53.538;49.366;2023-12-04T12:30:33;1.65;;;1.13;;
67195;SDS011;54122;53.538;49.366;2023-12-04T12:32:59;2.38;;;1.20;;
67195;SDS011;54122;53.538;49.366;2023-12-04T12:35:25;1.73;;;1.20;;
67195;SDS011;54122;53.538;49.366;2023-12-04T12:37:52;1.00;;;0.40;;
67195;SDS011;54122;53.538;49.366;2023-12-04T12:40:21;2.10;;;0.93;;
67195;SDS011;54122;53.538;49.366;2023-12-04T12:42:47;2.97;;;1.00;;
67195;SDS011;54122;53.538;49.366;2023-12-04T12:45:14;2.00;;;1.20;;
67195;SDS011;54122;53.538;49.366;2023-12-04T12:47:41;4.03;;;1.58;;
67195;SDS011;54122;53.538;49.366;2023-12-04T12:50:08;3.08;;;1.40;;
67195;SDS011;54122;53.538;49.366;2023-12-04T12:52:37;13.00;;;1.65;;
67195;SDS011;54122;53.538;49.366;2023-12-04T12:55:03;3.58;;;1.17;;
67195;SDS011;54122;53.538;49.366;2023-12-04T12:57:31;3.75;;;1.85;;
67195;SDS011;54122;53.538;49.366;2023-12-04T12:59:57;3.55;;;1.23;;
67195;SDS011;54122;53.538;49.366;2023-12-04T13:02:24;2.90;;;1.33;;
67195;SDS011;54122;53.538;49.366;2023-12-04T13:04:50;3.63;;;1.77;;
67195;SDS011;54122;53.538;49.366;2023-12-04T13:07:18;2.90;;;1.70;;
67195;SDS011;54122;53.538;49.366;2023-12-04T13:09:49;2.75;;;1.42;;
67195;SDS011;54122;53.538;49.366;2023-12-04T13:12:16;4.97;;;1.83;;
67195;SDS011;54122;53.538;49.366;2023-12-04T13:14:42;2.78;;;1.73;;
67195;SDS011;54122;53.538;49.366;2023-12-04T13:17:09;2.47;;;1.40;;
67195;SDS011;54122;53.538;49.366;2023-12-04T13:19:35;4.03;;;1.10;;
67195;SDS011;54122;53.538;49.366;2023-12-04T13:22:02;4.18;;;1.70;;
67195;SDS011;54122;53.538;49.366;2023-12-04T13:24:29;2.72;;;1.70;;
67195;SDS011;54122;53.538;49.366;2023-12-04T13:26:55;3.10;;;1.70;;
67195;SDS011;54122;53.538;49.366;2023-12-04T13:35:29;2.65;;;1.60;;
67195;SDS011;54122;53.538;49.366;2023-12-04T13:41:00;3.30;;;1.60;;
67195;SDS011;54122;53.538;49.366;2023-12-04T13:43:47;1.17;;;0.63;;
67195;SDS011;54122;53.538;49.366;2023-12-04T13:46:17;3.78;;;1.85;;
67195;SDS011;54122;53.538;49.366;2023-12-04T13:48:43;4.88;;;2.17;;
67195;SDS011;54122;53.538;49.366;2023-12-04T13:51:10;5.53;;;2.05;;
67195;SDS011;54122;53.538;49.366;2023-12-04T13:53:37;2.63;;;1.73;;
67195;SDS011;54122;53.538;49.366;2023-12-04T13:56:10;2.65;;;1.58;;
67195;SDS011;54122;53.538;49.366;2023-12-04T13:58:47;2.38;;;1.80;;
67195;SDS011;54122;53.538;49.366;2023-12-04T14:01:19;3.55;;;1.73;;
67195;SDS011;54122;53.538;49.366;2023-12-04T14:03:49;3.85;;;1.98;;
67195;SDS011;54122;53.538;49.366;2023-12-04T14:06:15;6.53;;;2.40;;
67195;SDS011;54122;53.538;49.366;2023-12-04T14:08:41;3.13;;;1.83;;
67195;SDS011;54122;53.538;49.366;2023-12-04T14:11:08;3.65;;;1.65;;
67195;SDS011;54122;53.538;49.366;2023-12-04T14:13:36;32.03;;;2.33;;
67195;SDS011;54122;53.538;49.366;2023-12-04T14:16:08;6.72;;;2.22;;
67195;SDS011;54122;53.538;49.366;2023-12-04T14:18:35;5.45;;;2.05;;
67195;SDS011;54122;53.538;49.366;2023-12-04T14:21:02;4.32;;;2.10;;
67195;SDS011;54122;53.538;49.366;2023-12-04T14:23:28;4.60;;;2.17;;
67195;SDS011;54122;53.538;49.366;2023-12-04T14:25:54;4.47;;;1.88;;
67195;SDS011;54122;53.538;49.366;2023-12-04T14:28:21;13.15;;;1.95;;
67195;SDS011;54122;53.538;49.366;2023-12-04T14:30:47;2.63;;;1.48;;
67195;SDS011;54122;53.538;49.366;2023-12-04T14:33:14;15.88;;;2.72;;
67195;SDS011;54122;53.538;49.366;2023-12-04T14:35:40;4.15;;;1.92;;
67195;SDS011;54122;53.538;49.366;2023-12-04T14:38:09;5.00;;;1.90;;
67195;SDS011;54122;53.538;49.366;2023-12-04T14:40:35;4.03;;;1.75;;
67195;SDS011;54122;53.538;49.366;2023-12-04T14:43:01;6.60;;;2.50;;
67195;SDS011;54122;53.538;49.366;2023-12-04T14:45:28;2.85;;;1.55;;
67195;SDS011;54122;53.538;49.366;2023-12-04T14:47:54;5.60;;;2.10;;
67195;SDS011;54122;53.538;49.366;2023-12-04T14:50:23;5.13;;;1.35;;
67195;SDS011;54122;53.538;49.366;2023-12-04T14:52:49;3.15;;;1.75;;
67195;SDS011;54122;53.538;49.366;2023-12-04T14:55:17;4.22;;;1.80;;
67195;SDS011;54122;53.538;49.366;2023-12-04T14:57:47;5.22;;;2.42;;
67195;SDS011;54122;53.538;49.366;2023-12-04T15:00:32;4.78;;;1.75;;
67195;SDS011;54122;53.538;49.366;2023-12-04T15:03:01;11.02;;;2.67;;
67195;SDS011;54122;53.538;49.366;2023-12-04T15:05:46;2.65;;;1.02;;
67195;SDS011;54122;53.538;49.366;2023-12-04T15:08:47;3.33;;;1.50;;
67195;SDS011;54122;53.538;49.366;2023-12-04T15:11:26;2.17;;;1.17;;
67195;SDS011;54122;53.538;49.366;2023-12-04T15:13:52;4.25;;;2.17;;
67195;SDS011;54122;53.538;49.366;2023-12-04T15:16:28;2.95;;;1.50;;
67195;SDS011;54122;53.538;49.366;2023-12-04T15:18:57;3.60;;;2.00;;
67195;SDS011;54122;53.538;49.366;2023-12-04T15:21:38;5.22;;;2.00;;
67195;SDS011;54122;53.538;49.366;2023-12-04T15:24:08;5.03;;;2.47;;
67195;SDS011;54122;53.538;49.366;2023-12-04T15:26:34;4.97;;;1.60;;
67195;SDS011;54122;53.538;49.366;2023-12-04T15:29:00;3.60;;;2.03;;
67195;SDS011;54122;53.538;49.366;2023-12-04T15:31:30;6.07;;;2.17;;
67195;SDS011;54122;53.538;49.366;2023-12-04T15:33:56;4.50;;;1.77;;
67195;SDS011;54122;53.538;49.366;2023-12-04T15:36:22;5.78;;;1.98;;